sensor_id;sensor_type;location;lat;lon;timestamp;P1;durP1;ratioP1;P2;durP2;ratioP2
50853;SDS011;44154;45.506;-122.806;2022-11-18T00:01:24;3.63;;;2.28;;
50853;SDS011;44154;45.506;-122.806;2022-11-18T00:03:51;5.60;;;1.85;;
50853;SDS011;44154;45.506;-122.806;2022-11-18T00:06:19;3.63;;;2.05;;
50853;SDS011;44154;45.506;-122.806;2022-11-18T00:08:48;4.45;;;2.10;;
50853;SDS011;44154;45.506;-122.806;2022-11-18T00:11:19;5.28;;;2.05;;
50853;SDS011;44154;45.506;-122.806;2022-11-18T00:14:06;4.15;;;2.40;;
50853;SDS011;44154;45.506;-122.806;2022-11-18T00:16:43;2.40;;;1.50;;
50853;SDS011;44154;45.506;-122.806;2022-11-18T00:19:10;2.67;;;1.40;;
50853;SDS011;44154;45.506;-122.806;2022-11-18T00:21:37;3.72;;;2.13;;
50853;SDS011;44154;45.506;-122.806;2022-11-18T00:24:03;3.10;;;1.58;;
50853;SDS011;44154;45.506;-122.806;2022-11-18T00:26:29;3.58;;;1.70;;
50853;SDS011;44154;45.506;-122.806;2022-11-18T00:28:55;2.90;;;1.50;;
50853;SDS011;44154;45.506;-122.806;2022-11-18T00:31:21;5.60;;;1.58;;
50853;SDS011;44154;45.506;-122.806;2022-11-18T00:33:48;5.60;;;1.75;;
50853;SDS011;44154;45.506;-122.806;2022-11-18T00:36:14;3.88;;;1.60;;
50853;SDS011;44154;45.506;-122.806;2022-11-18T00:38:40;5.45;;;2.25;;
50853;SDS011;44154;45.506;-122.806;2022-11-18T00:41:07;5.07;;;2.03;;
50853;SDS011;44154;45.506;-122.806;2022-11-18T00:43:38;4.75;;;2.00;;
50853;SDS011;44154;45.506;-122.806;2022-11-18T00:46:06;6.72;;;1.80;;
50853;SDS011;44154;45.506;-122.806;2022-11-18T00:48:33;7.88;;;2.20;;
50853;SDS011;44154;45.506;-122.806;2022-11-18T00:51:13;4.22;;;1.75;;
50853;SDS011;44154;45.506;-122.806;2022-11-18T00:53:41;2.45;;;1.50;;
50853;SDS011;44154;45.506;-122.806;2022-11-18T00:56:08;3.70;;;1.90;;
50853;SDS011;44154;45.506;-122.806;2022-11-18T00:58:34;6.53;;;2.25;;
50853;SDS011;44154;45.506;-122.806;2022-11-18T01:01:01;10.55;;;2.33;;
50853;SDS011;44154;45.506;-122.806;2022-11-18T01:03:28;4.50;;;1.95;;
50853;SDS011;44154;45.506;-122.806;2022-11-18T01:05:55;4.55;;;1.85;;
50853;SDS011;44154;45.506;-122.806;2022-11-18T01:08:21;4.38;;;2.05;;
50853;SDS011;44154;45.506;-122.806;2022-11-18T01:10:48;5.70;;;2.55;;
50853;SDS011;44154;45.506;-122.806;2022-11-18T01:13:16;4.95;;;2.00;;
50853;SDS011;44154;45.506;-122.806;2022-11-18T01:15:56;5.90;;;2.13;;
50853;SDS011;44154;45.506;-122.806;2022-11-18T01:18:24;7.60;;;2.20;;
50853;SDS011;44154;45.506;-122.806;2022-11-18T01:20:52;6.60;;;2.00;;
50853;SDS011;44154;45.506;-122.806;2022-11-18T01:23:19;5.20;;;2.00;;
50853;SDS011;44154;45.506;-122.806;2022-11-18T01:25:46;3.15;;;1.80;;
50853;SDS011;44154;45.506;-122.806;2022-11-18T01:28:14;2.65;;;1.60;;
50853;SDS011;44154;45.506;-122.806;2022-11-18T01:30:42;2.95;;;1.40;;
50853;SDS011;44154;45.506;-122.806;2022-11-18T01:33:08;7.20;;;1.90;;
50853;SDS011;44154;45.506;-122.806;2022-11-18T01:35:38;6.95;;;1.90;;
50853;SDS011;44154;45.506;-122.806;2022-11-18T01:38:07;5.85;;;1.92;;
50853;SDS011;44154;45.506;-122.806;2022-11-18T01:40:36;4.65;;;1.75;;
50853;SDS011;44154;45.506;-122.806;2022-11-18T01:43:04;8.30;;;1.83;;
50853;SDS011;44154;45.506;-122.806;2022-11-18T01:45:37;4.97;;;1.80;;
50853;SDS011;44154;45.506;-122.806;2022-11-18T01:50:39;5.10;;;1.60;;
50853;SDS011;44154;45.506;-122.806;2022-11-18T01:53:11;4.85;;;2.00;;
50853;SDS011;44154;45.506;-122.806;2022-11-18T01:55:43;10.77;;;2.28;;
50853;SDS011;44154;45.506;-122.806;2022-11-18T01:58:15;7.35;;;2.03;;
50853;SDS011;44154;45.506;-122.806;2022-11-18T02:00:48;5.53;;;1.90;;
50853;SDS011;44154;45.506;-122.806;2022-11-18T02:03:15;4.07;;;1.60;;
50853;SDS011;44154;45.506;-122.806;2022-11-18T02:05:43;3.28;;;1.38;;
50853;SDS011;44154;45.506;-122.806;2022-11-18T02:08:12;1.95;;;1.15;;
50853;SDS011;44154;45.506;-122.806;2022-11-18T02:10:39;5.32;;;1.55;;
50853;SDS011;44154;45.506;-122.806;2022-11-18T02:13:05;5.30;;;1.70;;
50853;SDS011;44154;45.506;-122.806;2022-11-18T02:34:40;5.82;;;1.83;;
50853;SDS011;44154;45.506;-122.806;2022-11-18T02:39:57;5.60;;;1.98;;
50853;SDS011;44154;45.506;-122.806;2022-11-18T02:42:31;4.35;;;1.85;;
50853;SDS011;44154;45.506;-122.806;2022-11-18T02:45:01;2.97;;;1.30;;
50853;SDS011;44154;45.506;-122.806;2022-11-18T02:47:31;1.90;;;1.20;;
50853;SDS011;44154;45.506;-122.806;2022-11-18T02:50:00;2.92;;;1.13;;
50853;SDS011;44154;45.506;-122.806;2022-11-18T02:52:30;1.73;;;1.13;;
50853;SDS011;44154;45.506;-122.806;2022-11-18T02:55:00;2.25;;;1.08;;
50853;SDS011;44154;45.506;-122.806;2022-11-18T02:57:30;1.60;;;1.00;;
50853;SDS011;44154;45.506;-122.806;2022-11-18T02:59:59;1.70;;;0.85;;
50853;SDS011;44154;45.506;-122.806;2022-11-18T03:02:26;1.98;;;1.10;;
50853;SDS011;44154;45.506;-122.806;2022-11-18T03:04:53;2.03;;;1.10;;
50853;SDS011;44154;45.506;-122.806;2022-11-18T03:07:26;2.80;;;1.10;;
50853;SDS011;44154;45.506;-122.806;2022-11-18T03:09:57;1.63;;;1.00;;
50853;SDS011;44154;45.506;-122.806;2022-11-18T03:12:40;1.02;;;0.82;;
50853;SDS011;44154;45.506;-122.806;2022-11-18T03:17:50;1.08;;;0.55;;
50853;SDS011;44154;45.506;-122.806;2022-11-18T03:20:21;1.45;;;0.80;;
50853;SDS011;44154;45.506;-122.806;2022-11-18T03:26:08;2.25;;;1.10;;
50853;SDS011;44154;45.506;-122.806;2022-11-18T03:28:28;5.00;;;1.17;;
50853;SDS011;44154;45.506;-122.806;2022-11-18T03:31:45;1.85;;;0.90;;
50853;SDS011;44154;45.506;-122.806;2022-11-18T03:34:14;2.20;;;0.95;;
50853;SDS011;44154;45.506;-122.806;2022-11-18T03:36:52;1.35;;;0.60;;
50853;SDS011;44154;45.506;-122.806;2022-11-18T03:39:21;1.63;;;0.70;;
50853;SDS011;44154;45.506;-122.806;2022-11-18T03:42:01;1.30;;;0.73;;
50853;SDS011;44154;45.506;-122.806;2022-11-18T03:44:37;1.88;;;0.90;;
50853;SDS011;44154;45.506;-122.806;2022-11-18T03:47:41;1.60;;;0.98;;
50853;SDS011;44154;45.506;-122.806;2022-11-18T03:50:24;3.83;;;0.95;;
50853;SDS011;44154;45.506;-122.806;2022-11-18T03:52:54;4.55;;;1.00;;
50853;SDS011;44154;45.506;-122.806;2022-11-18T03:55:21;2.55;;;1.10;;
50853;SDS011;44154;45.506;-122.806;2022-11-18T03:58:14;3.33;;;0.88;;
50853;SDS011;44154;45.506;-122.806;2022-11-18T04:00:44;4.35;;;1.15;;
50853;SDS011;44154;45.506;-122.806;2022-11-18T04:03:14;4.90;;;1.90;;
50853;SDS011;44154;45.506;-122.806;2022-11-18T04:05:41;3.58;;;1.10;;
50853;SDS011;44154;45.506;-122.806;2022-11-18T04:08:15;2.20;;;1.10;;
50853;SDS011;44154;45.506;-122.806;2022-11-18T04:10:51;5.13;;;1.38;;
50853;SDS011;44154;45.506;-122.806;2022-11-18T04:13:26;4.38;;;1.15;;
50853;SDS011;44154;45.506;-122.806;2022-11-18T04:15:55;4.63;;;1.38;;
50853;SDS011;44154;45.506;-122.806;2022-11-18T04:18:21;2.75;;;1.40;;
50853;SDS011;44154;45.506;-122.806;2022-11-18T04:20:48;4.72;;;1.50;;
50853;SDS011;44154;45.506;-122.806;2022-11-18T04:23:14;4.90;;;1.63;;
50853;SDS011;44154;45.506;-122.806;2022-11-18T04:25:40;2.92;;;1.63;;
50853;SDS011;44154;45.506;-122.806;2022-11-18T04:28:06;3.22;;;1.38;;
50853;SDS011;44154;45.506;-122.806;2022-11-18T04:30:33;3.70;;;1.20;;
50853;SDS011;44154;45.506;-122.806;2022-11-18T04:32:59;4.43;;;1.60;;
50853;SDS011;44154;45.506;-122.806;2022-11-18T04:35:26;5.72;;;2.10;;
50853;SDS011;44154;45.506;-122.806;2022-11-18T04:37:52;5.15;;;2.08;;
50853;SDS011;44154;45.506;-122.806;2022-11-18T04:40:19;4.35;;;2.05;;
50853;SDS011;44154;45.506;-122.806;2022-11-18T04:42:45;5.03;;;1.70;;
50853;SDS011;44154;45.506;-122.806;2022-11-18T04:45:12;5.57;;;3.58;;
50853;SDS011;44154;45.506;-122.806;2022-11-18T04:47:38;7.40;;;5.68;;
50853;SDS011;44154;45.506;-122.806;2022-11-18T04:50:04;6.28;;;4.47;;
50853;SDS011;44154;45.506;-122.806;2022-11-18T04:52:31;4.13;;;3.00;;
50853;SDS011;44154;45.506;-122.806;2022-11-18T04:54:57;3.47;;;2.47;;
50853;SDS011;44154;45.506;-122.806;2022-11-18T04:57:23;3.65;;;2.25;;
50853;SDS011;44154;45.506;-122.806;2022-11-18T04:59:49;6.20;;;2.78;;
50853;SDS011;44154;45.506;-122.806;2022-11-18T05:02:15;4.32;;;2.42;;
50853;SDS011;44154;45.506;-122.806;2022-11-18T05:04:42;4.57;;;2.55;;
50853;SDS011;44154;45.506;-122.806;2022-11-18T05:07:11;4.10;;;2.30;;
50853;SDS011;44154;45.506;-122.806;2022-11-18T05:09:40;3.63;;;2.37;;
50853;SDS011;44154;45.506;-122.806;2022-11-18T05:12:09;3.22;;;2.20;;
50853;SDS011;44154;45.506;-122.806;2022-11-18T05:14:55;4.07;;;2.15;;
50853;SDS011;44154;45.506;-122.806;2022-11-18T05:17:22;4.03;;;2.17;;
50853;SDS011;44154;45.506;-122.806;2022-11-18T05:22:17;4.45;;;3.15;;
50853;SDS011;44154;45.506;-122.806;2022-11-18T05:24:43;4.32;;;2.67;;
50853;SDS011;44154;45.506;-122.806;2022-11-18T05:27:10;4.72;;;2.55;;
50853;SDS011;44154;45.506;-122.806;2022-11-18T05:29:36;4.65;;;2.78;;
50853;SDS011;44154;45.506;-122.806;2022-11-18T05:32:03;3.20;;;2.22;;
50853;SDS011;44154;45.506;-122.806;2022-11-18T05:34:29;3.72;;;2.20;;
50853;SDS011;44154;45.506;-122.806;2022-11-18T05:36:55;4.25;;;2.35;;
50853;SDS011;44154;45.506;-122.806;2022-11-18T05:39:22;3.53;;;2.15;;
50853;SDS011;44154;45.506;-122.806;2022-11-18T05:41:48;3.58;;;2.38;;
50853;SDS011;44154;45.506;-122.806;2022-11-18T05:47:10;3.30;;;2.13;;
50853;SDS011;44154;45.506;-122.806;2022-11-18T05:49:36;3.33;;;2.05;;
50853;SDS011;44154;45.506;-122.806;2022-11-18T05:52:02;4.00;;;2.47;;
50853;SDS011;44154;45.506;-122.806;2022-11-18T05:54:29;3.72;;;2.28;;
50853;SDS011;44154;45.506;-122.806;2022-11-18T05:56:56;4.10;;;2.83;;
50853;SDS011;44154;45.506;-122.806;2022-11-18T05:59:22;4.88;;;2.40;;
50853;SDS011;44154;45.506;-122.806;2022-11-18T06:01:50;3.60;;;2.55;;
50853;SDS011;44154;45.506;-122.806;2022-11-18T06:07:12;3.47;;;2.33;;
50853;SDS011;44154;45.506;-122.806;2022-11-18T06:09:47;3.58;;;2.50;;
50853;SDS011;44154;45.506;-122.806;2022-11-18T06:12:18;4.45;;;2.70;;
50853;SDS011;44154;45.506;-122.806;2022-11-18T06:14:50;3.95;;;2.45;;
50853;SDS011;44154;45.506;-122.806;2022-11-18T06:17:22;3.60;;;2.50;;
50853;SDS011;44154;45.506;-122.806;2022-11-18T06:19:55;3.15;;;2.42;;
50853;SDS011;44154;45.506;-122.806;2022-11-18T06:22:23;3.38;;;2.70;;
50853;SDS011;44154;45.506;-122.806;2022-11-18T06:24:50;3.63;;;2.70;;
50853;SDS011;44154;45.506;-122.806;2022-11-18T06:27:16;4.70;;;2.50;;
50853;SDS011;44154;45.506;-122.806;2022-11-18T06:29:43;4.35;;;2.47;;
50853;SDS011;44154;45.506;-122.806;2022-11-18T06:32:09;3.42;;;2.70;;
50853;SDS011;44154;45.506;-122.806;2022-11-18T06:34:35;3.55;;;2.65;;
50853;SDS011;44154;45.506;-122.806;2022-11-18T06:37:11;3.80;;;2.83;;
50853;SDS011;44154;45.506;-122.806;2022-11-18T06:39:42;3.58;;;2.80;;
50853;SDS011;44154;45.506;-122.806;2022-11-18T06:42:08;4.75;;;2.63;;
50853;SDS011;44154;45.506;-122.806;2022-11-18T06:44:35;5.38;;;2.95;;
50853;SDS011;44154;45.506;-122.806;2022-11-18T06:47:02;4.82;;;2.60;;
50853;SDS011;44154;45.506;-122.806;2022-11-18T06:49:29;14.75;;;13.27;;
50853;SDS011;44154;45.506;-122.806;2022-11-18T06:51:55;18.30;;;16.60;;
50853;SDS011;44154;45.506;-122.806;2022-11-18T06:54:21;15.45;;;13.88;;
50853;SDS011;44154;45.506;-122.806;2022-11-18T06:56:48;9.90;;;9.00;;
50853;SDS011;44154;45.506;-122.806;2022-11-18T06:59:14;6.03;;;4.90;;
50853;SDS011;44154;45.506;-122.806;2022-11-18T07:01:46;5.18;;;4.40;;
50853;SDS011;44154;45.506;-122.806;2022-11-18T07:04:12;6.05;;;5.40;;
50853;SDS011;44154;45.506;-122.806;2022-11-18T07:06:38;7.38;;;6.05;;
50853;SDS011;44154;45.506;-122.806;2022-11-18T07:09:05;6.63;;;5.70;;
50853;SDS011;44154;45.506;-122.806;2022-11-18T07:11:32;8.95;;;6.03;;
50853;SDS011;44154;45.506;-122.806;2022-11-18T07:13:58;7.00;;;6.10;;
50853;SDS011;44154;45.506;-122.806;2022-11-18T07:16:26;8.75;;;7.85;;
50853;SDS011;44154;45.506;-122.806;2022-11-18T07:18:52;12.07;;;10.95;;
50853;SDS011;44154;45.506;-122.806;2022-11-18T07:21:21;10.93;;;9.82;;
50853;SDS011;44154;45.506;-122.806;2022-11-18T07:23:49;10.27;;;9.18;;
50853;SDS011;44154;45.506;-122.806;2022-11-18T07:26:16;5.75;;;5.15;;
50853;SDS011;44154;45.506;-122.806;2022-11-18T07:28:42;5.57;;;4.90;;
50853;SDS011;44154;45.506;-122.806;2022-11-18T07:31:13;6.53;;;5.55;;
50853;SDS011;44154;45.506;-122.806;2022-11-18T07:33:41;6.23;;;5.63;;
50853;SDS011;44154;45.506;-122.806;2022-11-18T07:36:09;7.10;;;5.68;;
50853;SDS011;44154;45.506;-122.806;2022-11-18T07:38:38;6.82;;;5.63;;
50853;SDS011;44154;45.506;-122.806;2022-11-18T07:41:05;5.90;;;5.30;;
50853;SDS011;44154;45.506;-122.806;2022-11-18T07:43:34;6.93;;;5.38;;
50853;SDS011;44154;45.506;-122.806;2022-11-18T07:46:34;12.07;;;10.25;;
50853;SDS011;44154;45.506;-122.806;2022-11-18T07:48:55;9.68;;;8.77;;
50853;SDS011;44154;45.506;-122.806;2022-11-18T07:51:24;8.38;;;7.57;;
50853;SDS011;44154;45.506;-122.806;2022-11-18T07:53:52;5.90;;;5.22;;
50853;SDS011;44154;45.506;-122.806;2022-11-18T07:56:18;5.13;;;4.63;;
50853;SDS011;44154;45.506;-122.806;2022-11-18T07:58:46;5.18;;;4.65;;
50853;SDS011;44154;45.506;-122.806;2022-11-18T08:01:13;6.20;;;5.10;;
50853;SDS011;44154;45.506;-122.806;2022-11-18T08:03:41;5.32;;;4.82;;
50853;SDS011;44154;45.506;-122.806;2022-11-18T08:06:09;6.30;;;5.47;;
50853;SDS011;44154;45.506;-122.806;2022-11-18T08:08:36;5.82;;;5.18;;
50853;SDS011;44154;45.506;-122.806;2022-11-18T08:11:04;5.95;;;5.35;;
50853;SDS011;44154;45.506;-122.806;2022-11-18T08:13:32;10.40;;;9.40;;
50853;SDS011;44154;45.506;-122.806;2022-11-18T08:15:59;8.80;;;7.90;;
50853;SDS011;44154;45.506;-122.806;2022-11-18T08:18:27;7.75;;;6.95;;
50853;SDS011;44154;45.506;-122.806;2022-11-18T08:20:54;6.20;;;5.60;;
50853;SDS011;44154;45.506;-122.806;2022-11-18T08:23:33;4.88;;;4.30;;
50853;SDS011;44154;45.506;-122.806;2022-11-18T08:26:03;4.72;;;4.15;;
50853;SDS011;44154;45.506;-122.806;2022-11-18T08:28:31;4.90;;;4.40;;
50853;SDS011;44154;45.506;-122.806;2022-11-18T08:30:57;6.05;;;4.82;;
50853;SDS011;44154;45.506;-122.806;2022-11-18T08:33:24;5.47;;;4.97;;
50853;SDS011;44154;45.506;-122.806;2022-11-18T08:35:50;6.72;;;4.82;;
50853;SDS011;44154;45.506;-122.806;2022-11-18T08:38:16;7.03;;;5.05;;
50853;SDS011;44154;45.506;-122.806;2022-11-18T08:40:44;5.05;;;4.55;;
50853;SDS011;44154;45.506;-122.806;2022-11-18T08:43:14;9.23;;;7.90;;
50853;SDS011;44154;45.506;-122.806;2022-11-18T08:45:41;8.82;;;7.93;;
50853;SDS011;44154;45.506;-122.806;2022-11-18T08:48:07;7.72;;;7.03;;
50853;SDS011;44154;45.506;-122.806;2022-11-18T08:50:33;4.85;;;4.35;;
50853;SDS011;44154;45.506;-122.806;2022-11-18T08:52:59;5.13;;;4.38;;
50853;SDS011;44154;45.506;-122.806;2022-11-18T08:55:25;5.32;;;4.75;;
50853;SDS011;44154;45.506;-122.806;2022-11-18T08:57:51;5.60;;;4.65;;
50853;SDS011;44154;45.506;-122.806;2022-11-18T09:00:18;5.95;;;5.00;;
50853;SDS011;44154;45.506;-122.806;2022-11-18T09:02:46;5.50;;;4.70;;
50853;SDS011;44154;45.506;-122.806;2022-11-18T09:05:13;6.22;;;4.57;;
50853;SDS011;44154;45.506;-122.806;2022-11-18T09:07:39;5.18;;;4.40;;
50853;SDS011;44154;45.506;-122.806;2022-11-18T09:10:05;5.38;;;4.43;;
50853;SDS011;44154;45.506;-122.806;2022-11-18T09:12:32;9.40;;;8.50;;
50853;SDS011;44154;45.506;-122.806;2022-11-18T09:14:58;8.93;;;8.02;;
50853;SDS011;44154;45.506;-122.806;2022-11-18T09:17:24;8.05;;;7.25;;
50853;SDS011;44154;45.506;-122.806;2022-11-18T09:19:50;5.53;;;4.93;;
50853;SDS011;44154;45.506;-122.806;2022-11-18T09:22:17;4.50;;;4.07;;
50853;SDS011;44154;45.506;-122.806;2022-11-18T09:24:43;4.65;;;4.10;;
50853;SDS011;44154;45.506;-122.806;2022-11-18T09:27:09;4.97;;;4.13;;
50853;SDS011;44154;45.506;-122.806;2022-11-18T09:29:35;5.10;;;4.30;;
50853;SDS011;44154;45.506;-122.806;2022-11-18T09:32:02;5.28;;;4.47;;
50853;SDS011;44154;45.506;-122.806;2022-11-18T09:34:28;5.07;;;4.25;;
50853;SDS011;44154;45.506;-122.806;2022-11-18T09:36:54;5.57;;;4.30;;
50853;SDS011;44154;45.506;-122.806;2022-11-18T09:39:21;5.32;;;4.50;;
50853;SDS011;44154;45.506;-122.806;2022-11-18T09:41:53;5.28;;;4.45;;
50853;SDS011;44154;45.506;-122.806;2022-11-18T09:47:31;11.50;;;9.98;;
50853;SDS011;44154;45.506;-122.806;2022-11-18T09:50:00;8.55;;;7.75;;
50853;SDS011;44154;45.506;-122.806;2022-11-18T09:52:31;5.53;;;4.90;;
50853;SDS011;44154;45.506;-122.806;2022-11-18T09:55:00;4.90;;;4.38;;
50853;SDS011;44154;45.506;-122.806;2022-11-18T09:57:45;5.45;;;4.25;;
50853;SDS011;44154;45.506;-122.806;2022-11-18T10:03:00;5.28;;;4.28;;
50853;SDS011;44154;45.506;-122.806;2022-11-18T10:06:00;4.97;;;4.10;;
50853;SDS011;44154;45.506;-122.806;2022-11-18T10:11:14;4.90;;;4.10;;
50853;SDS011;44154;45.506;-122.806;2022-11-18T10:19:33;8.40;;;7.50;;
50853;SDS011;44154;45.506;-122.806;2022-11-18T10:24:49;5.07;;;3.97;;
50853;SDS011;44154;45.506;-122.806;2022-11-18T10:27:17;4.97;;;4.28;;
50853;SDS011;44154;45.506;-122.806;2022-11-18T10:29:45;4.70;;;4.13;;
50853;SDS011;44154;45.506;-122.806;2022-11-18T10:32:17;5.68;;;4.78;;
50853;SDS011;44154;45.506;-122.806;2022-11-18T10:34:54;4.95;;;4.38;;
50853;SDS011;44154;45.506;-122.806;2022-11-18T10:37:23;5.40;;;4.00;;
50853;SDS011;44154;45.506;-122.806;2022-11-18T10:39:50;5.43;;;4.20;;
50853;SDS011;44154;45.506;-122.806;2022-11-18T10:42:22;5.15;;;4.10;;
50853;SDS011;44154;45.506;-122.806;2022-11-18T10:44:54;5.50;;;4.30;;
50853;SDS011;44154;45.506;-122.806;2022-11-18T10:47:39;9.57;;;8.57;;
50853;SDS011;44154;45.506;-122.806;2022-11-18T10:50:25;9.93;;;8.93;;
50853;SDS011;44154;45.506;-122.806;2022-11-18T10:53:02;6.25;;;5.65;;
50853;SDS011;44154;45.506;-122.806;2022-11-18T10:55:30;5.75;;;4.20;;
50853;SDS011;44154;45.506;-122.806;2022-11-18T10:57:58;4.50;;;3.75;;
50853;SDS011;44154;45.506;-122.806;2022-11-18T11:06:14;4.65;;;4.03;;
50853;SDS011;44154;45.506;-122.806;2022-11-18T11:08:53;5.22;;;4.40;;
50853;SDS011;44154;45.506;-122.806;2022-11-18T11:11:40;5.22;;;4.57;;
50853;SDS011;44154;45.506;-122.806;2022-11-18T11:14:25;5.10;;;4.20;;
50853;SDS011;44154;45.506;-122.806;2022-11-18T11:19:25;8.93;;;7.77;;
50853;SDS011;44154;45.506;-122.806;2022-11-18T11:22:00;9.30;;;7.50;;
50853;SDS011;44154;45.506;-122.806;2022-11-18T11:24:26;5.90;;;5.25;;
50853;SDS011;44154;45.506;-122.806;2022-11-18T11:26:55;6.25;;;4.68;;
50853;SDS011;44154;45.506;-122.806;2022-11-18T11:30:06;5.07;;;4.38;;
50853;SDS011;44154;45.506;-122.806;2022-11-18T11:32:59;6.07;;;5.10;;
50853;SDS011;44154;45.506;-122.806;2022-11-18T11:44:31;6.03;;;4.65;;
50853;SDS011;44154;45.506;-122.806;2022-11-18T11:55:27;5.80;;;4.97;;
50853;SDS011;44154;45.506;-122.806;2022-11-18T12:01:18;5.43;;;4.60;;
50853;SDS011;44154;45.506;-122.806;2022-11-18T12:06:48;6.72;;;4.63;;
50853;SDS011;44154;45.506;-122.806;2022-11-18T12:15:00;6.97;;;5.10;;
50853;SDS011;44154;45.506;-122.806;2022-11-18T12:20:41;8.63;;;6.72;;
50853;SDS011;44154;45.506;-122.806;2022-11-18T12:23:27;6.18;;;5.28;;
50853;SDS011;44154;45.506;-122.806;2022-11-18T12:25:59;5.97;;;4.50;;
50853;SDS011;44154;45.506;-122.806;2022-11-18T12:28:37;6.00;;;4.68;;
50853;SDS011;44154;45.506;-122.806;2022-11-18T12:34:02;5.47;;;4.78;;
50853;SDS011;44154;45.506;-122.806;2022-11-18T12:36:36;4.93;;;4.43;;
50853;SDS011;44154;45.506;-122.806;2022-11-18T12:42:02;6.00;;;4.80;;
50853;SDS011;44154;45.506;-122.806;2022-11-18T12:44:48;6.93;;;5.60;;
50853;SDS011;44154;45.506;-122.806;2022-11-18T12:54:59;5.40;;;4.68;;
50853;SDS011;44154;45.506;-122.806;2022-11-18T12:57:36;5.07;;;4.57;;
50853;SDS011;44154;45.506;-122.806;2022-11-18T13:02:50;5.10;;;4.50;;
50853;SDS011;44154;45.506;-122.806;2022-11-18T13:05:19;5.50;;;4.80;;
50853;SDS011;44154;45.506;-122.806;2022-11-18T13:10:50;5.63;;;4.38;;
50853;SDS011;44154;45.506;-122.806;2022-11-18T13:13:38;5.40;;;4.55;;
50853;SDS011;44154;45.506;-122.806;2022-11-18T13:16:23;7.57;;;6.78;;
50853;SDS011;44154;45.506;-122.806;2022-11-18T13:19:24;7.15;;;6.40;;
50853;SDS011;44154;45.506;-122.806;2022-11-18T13:21:57;5.15;;;4.53;;
50853;SDS011;44154;45.506;-122.806;2022-11-18T13:24:47;5.30;;;4.80;;
50853;SDS011;44154;45.506;-122.806;2022-11-18T13:27:34;5.20;;;4.13;;
50853;SDS011;44154;45.506;-122.806;2022-11-18T13:30:12;5.40;;;4.43;;
50853;SDS011;44154;45.506;-122.806;2022-11-18T13:32:43;5.35;;;4.40;;
50853;SDS011;44154;45.506;-122.806;2022-11-18T13:35:15;5.18;;;4.40;;
50853;SDS011;44154;45.506;-122.806;2022-11-18T13:37:53;4.78;;;4.05;;
50853;SDS011;44154;45.506;-122.806;2022-11-18T13:43:32;5.20;;;4.47;;
50853;SDS011;44154;45.506;-122.806;2022-11-18T13:46:00;7.35;;;6.65;;
50853;SDS011;44154;45.506;-122.806;2022-11-18T13:48:46;8.23;;;7.30;;
50853;SDS011;44154;45.506;-122.806;2022-11-18T13:51:20;6.45;;;5.57;;
50853;SDS011;44154;45.506;-122.806;2022-11-18T13:53:47;6.15;;;5.53;;
50853;SDS011;44154;45.506;-122.806;2022-11-18T13:56:16;5.35;;;4.80;;
50853;SDS011;44154;45.506;-122.806;2022-11-18T13:58:54;6.13;;;5.53;;
50853;SDS011;44154;45.506;-122.806;2022-11-18T14:01:31;6.53;;;4.97;;
50853;SDS011;44154;45.506;-122.806;2022-11-18T14:04:00;5.20;;;4.57;;
50853;SDS011;44154;45.506;-122.806;2022-11-18T14:06:29;5.20;;;4.38;;
50853;SDS011;44154;45.506;-122.806;2022-11-18T14:09:05;5.18;;;4.55;;
50853;SDS011;44154;45.506;-122.806;2022-11-18T14:12:05;8.77;;;7.88;;
50853;SDS011;44154;45.506;-122.806;2022-11-18T14:14:35;7.13;;;6.43;;
50853;SDS011;44154;45.506;-122.806;2022-11-18T14:17:04;5.45;;;4.85;;
50853;SDS011;44154;45.506;-122.806;2022-11-18T14:19:42;5.30;;;4.80;;
50853;SDS011;44154;45.506;-122.806;2022-11-18T14:22:14;4.93;;;4.25;;
50853;SDS011;44154;45.506;-122.806;2022-11-18T14:24:43;5.28;;;4.18;;
50853;SDS011;44154;45.506;-122.806;2022-11-18T14:27:28;4.65;;;4.10;;
50853;SDS011;44154;45.506;-122.806;2022-11-18T14:35:53;8.30;;;7.47;;
50853;SDS011;44154;45.506;-122.806;2022-11-18T14:38:36;7.05;;;6.35;;
50853;SDS011;44154;45.506;-122.806;2022-11-18T14:41:08;6.22;;;5.30;;
50853;SDS011;44154;45.506;-122.806;2022-11-18T14:43:36;5.40;;;4.85;;
50853;SDS011;44154;45.506;-122.806;2022-11-18T14:46:13;5.05;;;4.55;;
50853;SDS011;44154;45.506;-122.806;2022-11-18T14:48:45;5.03;;;4.45;;
50853;SDS011;44154;45.506;-122.806;2022-11-18T14:51:12;4.32;;;3.78;;
50853;SDS011;44154;45.506;-122.806;2022-11-18T14:53:40;5.20;;;3.35;;
50853;SDS011;44154;45.506;-122.806;2022-11-18T14:56:10;4.45;;;3.63;;
50853;SDS011;44154;45.506;-122.806;2022-11-18T14:58:39;3.97;;;3.20;;
50853;SDS011;44154;45.506;-122.806;2022-11-18T15:01:08;4.30;;;3.55;;
50853;SDS011;44154;45.506;-122.806;2022-11-18T15:03:36;4.35;;;3.80;;
50853;SDS011;44154;45.506;-122.806;2022-11-18T15:06:02;5.15;;;4.65;;
50853;SDS011;44154;45.506;-122.806;2022-11-18T15:08:31;5.25;;;4.35;;
50853;SDS011;44154;45.506;-122.806;2022-11-18T15:10:57;6.80;;;4.68;;
50853;SDS011;44154;45.506;-122.806;2022-11-18T15:13:23;5.32;;;4.53;;
50853;SDS011;44154;45.506;-122.806;2022-11-18T15:15:49;6.18;;;4.93;;
50853;SDS011;44154;45.506;-122.806;2022-11-18T15:18:15;5.60;;;4.28;;
50853;SDS011;44154;45.506;-122.806;2022-11-18T15:20:41;7.50;;;6.07;;
50853;SDS011;44154;45.506;-122.806;2022-11-18T15:23:07;6.60;;;4.68;;
50853;SDS011;44154;45.506;-122.806;2022-11-18T15:25:34;6.32;;;5.22;;
50853;SDS011;44154;45.506;-122.806;2022-11-18T15:28:00;6.53;;;5.82;;
50853;SDS011;44154;45.506;-122.806;2022-11-18T15:30:26;7.57;;;6.35;;
50853;SDS011;44154;45.506;-122.806;2022-11-18T15:32:52;6.68;;;5.60;;
50853;SDS011;44154;45.506;-122.806;2022-11-18T15:35:18;9.13;;;6.13;;
50853;SDS011;44154;45.506;-122.806;2022-11-18T15:37:45;7.07;;;5.45;;
50853;SDS011;44154;45.506;-122.806;2022-11-18T15:40:11;11.25;;;10.07;;
50853;SDS011;44154;45.506;-122.806;2022-11-18T15:42:37;11.52;;;9.52;;
50853;SDS011;44154;45.506;-122.806;2022-11-18T15:45:03;6.85;;;5.97;;
50853;SDS011;44154;45.506;-122.806;2022-11-18T15:47:30;6.10;;;5.30;;
50853;SDS011;44154;45.506;-122.806;2022-11-18T15:49:56;5.82;;;4.93;;
50853;SDS011;44154;45.506;-122.806;2022-11-18T15:52:22;7.90;;;5.88;;
50853;SDS011;44154;45.506;-122.806;2022-11-18T15:54:48;7.13;;;5.40;;
50853;SDS011;44154;45.506;-122.806;2022-11-18T15:57:15;7.78;;;5.25;;
50853;SDS011;44154;45.506;-122.806;2022-11-18T15:59:41;6.25;;;5.32;;
50853;SDS011;44154;45.506;-122.806;2022-11-18T16:02:08;6.60;;;5.53;;
50853;SDS011;44154;45.506;-122.806;2022-11-18T16:04:35;6.93;;;5.53;;
50853;SDS011;44154;45.506;-122.806;2022-11-18T16:07:01;10.18;;;6.35;;
50853;SDS011;44154;45.506;-122.806;2022-11-18T16:09:27;7.47;;;5.70;;
50853;SDS011;44154;45.506;-122.806;2022-11-18T16:12:14;8.15;;;5.82;;
50853;SDS011;44154;45.506;-122.806;2022-11-18T16:14:59;6.95;;;5.75;;
50853;SDS011;44154;45.506;-122.806;2022-11-18T16:17:44;5.85;;;5.18;;
50853;SDS011;44154;45.506;-122.806;2022-11-18T16:20:10;6.05;;;5.45;;
50853;SDS011;44154;45.506;-122.806;2022-11-18T16:22:37;5.78;;;4.47;;
50853;SDS011;44154;45.506;-122.806;2022-11-18T16:25:03;5.07;;;4.03;;
50853;SDS011;44154;45.506;-122.806;2022-11-18T16:27:29;5.00;;;3.92;;
50853;SDS011;44154;45.506;-122.806;2022-11-18T16:29:56;4.88;;;3.67;;
50853;SDS011;44154;45.506;-122.806;2022-11-18T16:32:22;5.05;;;3.90;;